createdAt,value
2018-09-14T00:02:18.119Z,9.47
2018-09-14T00:04:46.652Z,8.17
2018-09-14T00:07:15.191Z,7.30
2018-09-14T00:09:43.836Z,7.97
2018-09-14T00:12:12.376Z,7.80
2018-09-14T00:14:40.928Z,8.50
2018-09-14T00:17:09.590Z,7.93
2018-09-14T00:19:38.171Z,8.50
2018-09-14T00:22:06.995Z,8.07
2018-09-14T00:24:35.520Z,8.70
2018-09-14T00:27:04.162Z,9.33
2018-09-14T00:29:32.704Z,8.53
2018-09-14T00:32:01.243Z,8.40
2018-09-14T00:34:29.848Z,8.80
2018-09-14T00:36:58.383Z,7.83
2018-09-14T00:39:26.916Z,8.47
2018-09-14T00:41:55.493Z,9.50
2018-09-14T00:44:24.110Z,9.03
2018-09-14T00:46:52.633Z,8.50
2018-09-14T00:49:21.168Z,7.80
2018-09-14T00:51:49.721Z,9.13
2018-09-14T00:54:18.271Z,9.00
2018-09-14T00:56:46.836Z,8.33
2018-09-14T00:59:15.462Z,8.10
2018-09-14T01:01:44.681Z,7.93
2018-09-14T01:04:13.220Z,9.40
2018-09-14T01:06:41.938Z,7.73
2018-09-14T01:09:18.401Z,7.57
2018-09-14T01:11:47.367Z,7.40
2018-09-14T01:14:15.907Z,7.67
2018-09-14T01:16:44.802Z,8.10
2018-09-14T01:19:13.440Z,7.93
2018-09-14T01:21:42.056Z,8.83
2018-09-14T01:24:10.597Z,7.87
2018-09-14T01:26:39.154Z,7.77
2018-09-14T01:29:07.674Z,8.67
2018-09-14T01:31:36.216Z,9.30
2018-09-14T01:34:04.790Z,8.30
2018-09-14T01:36:33.327Z,9.20
2018-09-14T01:39:02.714Z,8.20
2018-09-14T01:41:31.270Z,9.00
2018-09-14T01:43:59.861Z,8.60
2018-09-14T01:46:28.444Z,8.50
2018-09-14T01:48:57.000Z,7.80
2018-09-14T01:51:25.627Z,7.40
2018-09-14T01:53:54.193Z,7.90
2018-09-14T01:56:22.779Z,7.53
2018-09-14T01:58:51.330Z,7.30
2018-09-14T02:01:20.204Z,9.10
2018-09-14T02:03:48.815Z,7.47
2018-09-14T02:06:17.371Z,8.93
2018-09-14T02:08:46.119Z,8.73
2018-09-14T02:11:15.561Z,9.77
2018-09-14T02:13:44.326Z,8.57
2018-09-14T02:16:12.876Z,9.43
2018-09-14T02:18:41.412Z,8.93
2018-09-14T02:21:10.028Z,10.07
2018-09-14T02:23:38.559Z,9.60
2018-09-14T02:26:07.264Z,9.50
2018-09-14T02:28:35.946Z,10.30
2018-09-14T02:31:04.543Z,9.40
2018-09-14T02:33:33.088Z,8.97
2018-09-14T02:36:01.629Z,8.97
2018-09-14T02:38:30.143Z,8.70
2018-09-14T02:40:58.732Z,8.67
2018-09-14T02:43:27.415Z,8.33
2018-09-14T02:45:55.936Z,9.23
2018-09-14T02:48:24.560Z,9.50
2018-09-14T02:50:53.113Z,9.00
2018-09-14T02:53:21.729Z,10.27
2018-09-14T02:55:50.338Z,10.33
2018-09-14T02:58:19.063Z,10.13
2018-09-14T03:00:47.611Z,10.30
2018-09-14T03:03:16.148Z,10.13
2018-09-14T03:05:44.784Z,9.73
2018-09-14T03:08:13.309Z,9.73
2018-09-14T03:10:41.839Z,9.77
2018-09-14T03:13:10.647Z,10.33
2018-09-14T03:15:39.411Z,9.80
2018-09-14T03:18:08.001Z,10.77
2018-09-14T03:20:36.523Z,11.83
2018-09-14T03:23:05.066Z,9.27
2018-09-14T03:25:33.604Z,10.00
2018-09-14T03:28:02.155Z,8.83
2018-09-14T03:30:30.707Z,9.33
2018-09-14T03:32:59.238Z,9.50
2018-09-14T03:35:27.887Z,10.03
2018-09-14T03:37:56.432Z,10.20
2018-09-14T03:40:24.972Z,12.43
2018-09-14T03:42:53.514Z,11.50
2018-09-14T03:45:22.125Z,11.20
2018-09-14T03:47:52.899Z,12.17
2018-09-14T03:50:22.909Z,12.00
2018-09-14T03:52:51.547Z,11.93
2018-09-14T03:55:20.095Z,9.70
2018-09-14T03:57:48.649Z,9.83
2018-09-14T04:00:17.254Z,11.10
2018-09-14T04:02:46.632Z,9.03
2018-09-14T04:05:15.186Z,9.13
2018-09-14T04:07:44.354Z,10.03
2018-09-14T04:10:13.065Z,9.23
2018-09-14T04:12:41.604Z,10.60
2018-09-14T04:15:11.009Z,9.70
2018-09-14T04:17:39.562Z,12.80
2018-09-14T04:20:08.899Z,12.30
2018-09-14T04:22:38.270Z,11.93
2018-09-14T04:25:06.817Z,12.47
2018-09-14T04:27:35.458Z,11.63
2018-09-14T04:30:04.437Z,12.27
2018-09-14T04:32:32.984Z,11.13
2018-09-14T04:35:01.999Z,11.30
2018-09-14T04:37:30.525Z,12.53
2018-09-14T04:39:59.045Z,13.10
2018-09-14T04:42:27.608Z,11.97
2018-09-14T04:44:56.161Z,12.33
2018-09-14T04:47:24.705Z,12.10
2018-09-14T04:49:53.296Z,9.03
2018-09-14T04:52:21.848Z,8.70
2018-09-14T04:54:50.405Z,9.40
2018-09-14T04:57:18.967Z,9.93
2018-09-14T04:59:47.537Z,10.27
2018-09-14T05:02:16.729Z,10.47
2018-09-14T05:04:45.281Z,9.73
2018-09-14T05:07:13.858Z,9.77
2018-09-14T05:09:42.452Z,10.40
2018-09-14T05:12:11.060Z,12.03
2018-09-14T05:14:39.629Z,12.20
2018-09-14T05:17:08.199Z,13.20
2018-09-14T05:19:36.797Z,11.67
2018-09-14T05:22:05.349Z,11.03
2018-09-14T05:24:34.048Z,13.80
2018-09-14T05:27:02.564Z,10.60
2018-09-14T05:29:31.096Z,12.17
2018-09-14T05:31:59.649Z,10.03
2018-09-14T05:34:28.188Z,9.70
2018-09-14T05:36:56.741Z,9.33
2018-09-14T05:39:25.289Z,9.43
2018-09-14T05:41:53.977Z,10.87
2018-09-14T05:44:22.517Z,9.90
2018-09-14T05:46:51.160Z,9.77
2018-09-14T05:49:19.739Z,10.33
2018-09-14T05:51:48.284Z,9.57
2018-09-14T05:54:16.839Z,8.47
2018-09-14T05:56:45.407Z,8.50
2018-09-14T05:59:13.986Z,8.23
2018-09-14T06:01:43.652Z,9.47
2018-09-14T06:04:12.190Z,8.43
2018-09-14T06:06:40.722Z,9.00
2018-09-14T06:09:11.016Z,8.10
2018-09-14T06:11:39.628Z,7.83
2018-09-14T06:14:08.244Z,7.53
2018-09-14T06:16:36.908Z,7.93
2018-09-14T06:19:05.587Z,8.40
2018-09-14T06:21:34.257Z,7.47
2018-09-14T06:24:02.906Z,7.03
2018-09-14T06:26:31.659Z,7.70
2018-09-14T06:29:00.238Z,8.40
2018-09-14T06:31:28.775Z,6.77
2018-09-14T06:33:57.351Z,7.50
2018-09-14T06:36:25.904Z,7.63
2018-09-14T06:38:54.510Z,8.53
2018-09-14T06:41:23.085Z,7.77
2018-09-14T06:43:51.656Z,8.20
2018-09-14T06:46:20.339Z,7.80
2018-09-14T06:48:48.888Z,8.70
2018-09-14T06:51:17.449Z,8.60
2018-09-14T06:53:45.991Z,8.10
2018-09-14T06:56:14.741Z,6.97
2018-09-14T06:58:43.290Z,8.60
2018-09-14T07:01:11.832Z,8.20
2018-09-14T07:03:40.479Z,6.77
2018-09-14T07:06:09.080Z,8.60
2018-09-14T07:08:37.622Z,8.97
2018-09-14T07:11:06.166Z,9.20
2018-09-14T07:13:34.778Z,9.20
2018-09-14T07:16:03.379Z,8.80
2018-09-14T07:18:31.923Z,9.50
2018-09-14T07:21:00.488Z,9.80
2018-09-14T07:23:29.129Z,9.07
2018-09-14T07:25:57.689Z,9.83
2018-09-14T07:28:26.260Z,7.40
2018-09-14T07:30:54.816Z,9.63
2018-09-14T07:33:23.357Z,7.77
2018-09-14T07:35:51.907Z,9.00
2018-09-14T07:38:20.448Z,7.43
2018-09-14T07:40:48.979Z,7.73
2018-09-14T07:43:17.546Z,7.40
2018-09-14T07:45:46.107Z,22.20
2018-09-14T07:48:14.693Z,9.73
2018-09-14T07:50:43.267Z,8.43
2018-09-14T07:53:11.827Z,8.07
2018-09-14T07:55:40.396Z,8.73
2018-09-14T07:58:09.012Z,7.87
2018-09-14T08:00:37.667Z,7.63
2018-09-14T08:03:07.107Z,9.27
2018-09-14T08:05:35.727Z,8.37
2018-09-14T08:08:04.304Z,9.87
2018-09-14T08:10:32.837Z,7.80
2018-09-14T08:13:01.380Z,8.80
2018-09-14T08:15:29.957Z,8.03
2018-09-14T08:17:58.520Z,8.73
2018-09-14T08:20:27.100Z,8.57
2018-09-14T08:22:55.639Z,9.67
2018-09-14T08:25:24.189Z,6.87
2018-09-14T08:27:52.758Z,7.10
2018-09-14T08:30:21.312Z,7.53
2018-09-14T08:32:49.871Z,7.07
2018-09-14T08:35:18.508Z,7.27
2018-09-14T08:37:47.093Z,7.20
2018-09-14T08:40:15.635Z,6.27
2018-09-14T08:42:44.173Z,6.80
2018-09-14T08:45:12.867Z,6.00
2018-09-14T08:47:41.418Z,6.67
2018-09-14T08:50:09.969Z,6.23
2018-09-14T08:52:38.524Z,6.80
2018-09-14T08:55:07.200Z,7.20
2018-09-14T08:57:35.824Z,5.83
2018-09-14T09:00:04.412Z,7.43
2018-09-14T09:02:32.971Z,7.10
2018-09-14T09:05:01.573Z,7.07
2018-09-14T09:07:30.138Z,8.70
2018-09-14T09:09:58.679Z,8.10
2018-09-14T09:12:27.232Z,6.67
2018-09-14T09:14:55.996Z,7.20
2018-09-14T09:17:24.584Z,6.93
2018-09-14T09:19:53.187Z,6.53
2018-09-14T09:22:21.736Z,7.57
2018-09-14T09:24:50.274Z,7.33
2018-09-14T09:27:18.839Z,8.37
2018-09-14T09:29:47.489Z,7.13
2018-09-14T09:32:16.051Z,7.47
2018-09-14T09:34:44.600Z,7.67
2018-09-14T09:37:13.182Z,6.80
2018-09-14T09:39:41.810Z,6.73
2018-09-14T09:42:10.385Z,11.30
2018-09-14T09:44:38.932Z,9.57
2018-09-14T09:47:07.515Z,9.40
2018-09-14T09:49:36.060Z,6.60
2018-09-14T09:52:04.635Z,7.60
2018-09-14T09:54:33.393Z,5.97
2018-09-14T09:57:02.101Z,5.27
2018-09-14T09:59:30.704Z,5.50
2018-09-14T10:02:04.481Z,5.10
2018-09-14T10:04:34.276Z,6.20
2018-09-14T10:07:02.884Z,5.93
2018-09-14T10:09:31.433Z,4.20
2018-09-14T10:12:00.021Z,6.83
2018-09-14T10:14:28.604Z,4.97
2018-09-14T10:16:57.469Z,6.10
2018-09-14T10:19:26.747Z,5.17
2018-09-14T10:21:55.701Z,6.40
2018-09-14T10:24:24.305Z,4.67
2018-09-14T10:26:52.859Z,4.87
2018-09-14T10:29:21.416Z,5.10
2018-09-14T10:31:49.998Z,7.20
2018-09-14T10:34:18.553Z,5.67
2018-09-14T10:36:47.561Z,5.93
2018-09-14T10:39:16.160Z,5.67
2018-09-14T10:41:44.784Z,5.10
2018-09-14T10:44:13.324Z,5.93
2018-09-14T10:46:41.912Z,5.50
2018-09-14T10:49:19.590Z,4.83
2018-09-14T10:51:59.923Z,6.13
2018-09-14T10:54:28.519Z,6.13
2018-09-14T10:56:57.132Z,6.03
2018-09-14T10:59:25.666Z,5.00
2018-09-14T11:01:54.246Z,5.87
2018-09-14T11:04:22.879Z,4.80
2018-09-14T11:06:51.567Z,5.30
2018-09-14T11:09:20.116Z,4.90
2018-09-14T11:11:48.655Z,5.60
2018-09-14T11:14:17.237Z,7.30
2018-09-14T11:16:45.793Z,7.70
2018-09-14T11:19:14.445Z,6.70
2018-09-14T11:21:43.031Z,6.70
2018-09-14T11:24:11.568Z,7.53
2018-09-14T11:26:40.117Z,7.90
2018-09-14T11:29:08.690Z,6.63
2018-09-14T11:31:37.338Z,6.87
2018-09-14T11:34:05.933Z,7.60
2018-09-14T11:36:34.501Z,7.70
2018-09-14T11:39:03.164Z,8.10
2018-09-14T11:41:31.792Z,7.87
2018-09-14T11:44:00.349Z,8.30
2018-09-14T11:46:28.917Z,6.30
2018-09-14T11:48:57.475Z,6.60
2018-09-14T11:51:26.050Z,6.40
2018-09-14T11:53:54.681Z,5.90
2018-09-14T11:56:23.304Z,6.50
2018-09-14T11:58:51.859Z,6.53
2018-09-14T12:01:20.509Z,6.33
2018-09-14T12:03:49.762Z,7.33
2018-09-14T12:06:18.318Z,7.23
2018-09-14T12:08:46.980Z,6.13
2018-09-14T12:11:15.546Z,7.17
2018-09-14T12:13:44.230Z,6.77
2018-09-14T12:16:12.765Z,5.73
2018-09-14T12:18:42.189Z,5.97
2018-09-14T12:21:10.799Z,5.57
2018-09-14T12:23:39.372Z,6.60
2018-09-14T12:26:07.920Z,5.73
2018-09-14T12:28:36.476Z,6.03
2018-09-14T12:31:05.020Z,6.00
2018-09-14T12:33:33.685Z,6.60
2018-09-14T12:36:02.249Z,6.77
2018-09-14T12:38:30.796Z,5.77
2018-09-14T12:40:59.358Z,5.90
2018-09-14T12:43:27.911Z,6.03
2018-09-14T12:45:56.461Z,6.03
2018-09-14T12:48:25.028Z,6.00
2018-09-14T12:50:53.568Z,6.10
2018-09-14T12:53:22.113Z,6.60
2018-09-14T12:55:50.728Z,5.83
2018-09-14T12:58:19.287Z,4.07
2018-09-14T13:00:47.853Z,3.77
2018-09-14T13:03:16.405Z,3.03
2018-09-14T13:05:45.074Z,3.20
2018-09-14T13:08:13.625Z,2.07
2018-09-14T13:10:42.188Z,2.63
2018-09-14T13:13:10.781Z,1.97
2018-09-14T13:15:39.356Z,1.30
2018-09-14T13:18:07.924Z,1.93
2018-09-14T13:20:36.506Z,2.97
2018-09-14T13:23:05.188Z,5.07
2018-09-14T13:25:33.738Z,2.50
2018-09-14T13:28:02.359Z,2.00
2018-09-14T13:30:31.047Z,2.07
2018-09-14T13:32:59.612Z,2.00
2018-09-14T13:35:28.155Z,2.00
2018-09-14T13:37:56.754Z,1.80
2018-09-14T13:40:25.398Z,1.80
2018-09-14T13:42:53.972Z,2.00
2018-09-14T13:45:22.642Z,2.07
2018-09-14T13:47:51.284Z,2.20
2018-09-14T13:50:21.295Z,2.47
2018-09-14T13:52:52.039Z,2.40
2018-09-14T13:55:21.979Z,1.73
2018-09-14T13:57:50.554Z,2.47
2018-09-14T14:00:19.133Z,1.90
2018-09-14T14:02:49.314Z,2.10
2018-09-14T14:05:17.869Z,2.20
2018-09-14T14:07:46.621Z,2.60
2018-09-14T14:10:17.451Z,2.90
2018-09-14T14:12:45.963Z,2.20
2018-09-14T14:15:14.509Z,3.77
2018-09-14T14:17:43.108Z,2.80
2018-09-14T14:20:13.442Z,2.77
2018-09-14T14:22:42.212Z,2.57
2018-09-14T14:25:10.762Z,1.77
2018-09-14T14:27:39.451Z,2.17
2018-09-14T14:30:08.142Z,1.43
2018-09-14T14:32:36.705Z,1.93
2018-09-14T14:35:05.778Z,2.20
2018-09-14T14:37:34.390Z,2.40
2018-09-14T14:40:02.983Z,2.00
2018-09-14T14:42:32.531Z,1.73
2018-09-14T14:45:01.140Z,1.87
2018-09-14T14:47:31.463Z,1.23
2018-09-14T14:50:00.024Z,2.13
2018-09-14T14:52:28.589Z,1.80
2018-09-14T15:00:38.219Z,2.93
2018-09-14T15:03:09.060Z,3.20
2018-09-14T15:05:37.680Z,3.37
2018-09-14T15:08:06.274Z,2.67
2018-09-14T15:10:34.832Z,3.23
2018-09-14T15:13:03.577Z,2.87
2018-09-14T15:15:32.260Z,3.33
2018-09-14T15:18:00.897Z,3.00
2018-09-14T15:20:29.507Z,3.20
2018-09-14T15:22:58.097Z,2.97
2018-09-14T15:25:26.640Z,2.90
2018-09-14T15:27:55.264Z,3.40
2018-09-14T15:30:23.988Z,3.53
2018-09-14T15:32:52.839Z,3.70
2018-09-14T15:35:21.455Z,3.60
2018-09-14T15:37:50.267Z,2.33
2018-09-14T15:40:19.000Z,2.53
2018-09-14T15:42:47.538Z,3.10
2018-09-14T15:45:16.150Z,2.73
2018-09-14T15:47:44.781Z,3.90
2018-09-14T15:50:13.362Z,3.70
2018-09-14T15:52:41.957Z,4.60
2018-09-14T15:55:10.908Z,3.80
2018-09-14T15:57:40.406Z,4.07
2018-09-14T16:00:09.024Z,3.67
2018-09-14T16:02:38.123Z,4.40
2018-09-14T16:05:06.700Z,4.50
2018-09-14T16:07:35.280Z,3.80
2018-09-14T16:10:04.013Z,3.77
2018-09-14T16:12:32.852Z,3.87
2018-09-14T16:15:01.435Z,3.97
2018-09-14T16:17:31.238Z,3.20
2018-09-14T16:19:59.909Z,4.03
2018-09-14T16:22:28.466Z,3.70
2018-09-14T16:24:57.457Z,3.80
2018-09-14T16:27:26.087Z,4.60
2018-09-14T16:29:54.696Z,4.47
2018-09-14T16:32:23.250Z,4.50
2018-09-14T16:34:51.904Z,4.30
2018-09-14T16:37:20.518Z,4.33
2018-09-14T16:39:49.038Z,4.00
2018-09-14T16:42:17.585Z,3.90
2018-09-14T16:44:46.159Z,3.70
2018-09-14T16:47:14.769Z,3.40
2018-09-14T16:49:43.364Z,3.87
2018-09-14T16:52:11.962Z,3.10
2018-09-14T16:54:40.605Z,4.50
2018-09-14T16:57:09.146Z,5.07
2018-09-14T16:59:37.789Z,3.90
2018-09-14T17:02:06.958Z,3.70
2018-09-14T17:04:38.355Z,4.00
2018-09-14T17:07:08.833Z,3.73
2018-09-14T17:09:38.162Z,3.20
2018-09-14T17:12:06.811Z,3.33
2018-09-14T17:14:35.444Z,3.00
2018-09-14T17:17:04.073Z,3.40
2018-09-14T17:19:32.684Z,4.30
2018-09-14T17:22:01.263Z,2.80
2018-09-14T17:24:29.824Z,3.53
2018-09-14T17:27:01.452Z,3.87
2018-09-14T17:29:29.991Z,3.27
2018-09-14T17:31:58.568Z,3.80
2018-09-14T17:34:35.248Z,3.30
2018-09-14T17:37:04.286Z,3.57
2018-09-14T17:39:32.866Z,3.40
2018-09-14T17:42:01.572Z,4.03
2018-09-14T17:44:30.217Z,3.43
2018-09-14T17:47:08.904Z,3.40
2018-09-14T17:49:37.476Z,3.30
2018-09-14T17:52:06.044Z,2.87
2018-09-14T17:54:34.657Z,4.50
2018-09-14T17:57:03.247Z,3.53
2018-09-14T17:59:31.869Z,4.50
2018-09-14T18:02:00.475Z,3.70
2018-09-14T18:04:29.030Z,4.00
2018-09-14T18:06:57.636Z,4.70
2018-09-14T18:09:26.261Z,3.73
2018-09-14T18:12:04.425Z,3.87
2018-09-14T18:14:32.990Z,2.77
2018-09-14T18:17:01.528Z,4.43
2018-09-14T18:19:30.114Z,4.47
2018-09-14T18:21:58.699Z,4.03
2018-09-14T18:24:27.260Z,4.27
2018-09-14T18:26:55.964Z,4.90
2018-09-14T18:29:24.687Z,4.60
2018-09-14T18:31:53.273Z,6.67
2018-09-14T18:34:21.836Z,5.67
2018-09-14T18:36:50.450Z,5.37
2018-09-14T18:39:19.029Z,5.03
2018-09-14T18:41:47.745Z,5.73
2018-09-14T18:44:25.272Z,4.90
2018-09-14T18:46:54.205Z,5.00
2018-09-14T18:49:23.078Z,4.10
2018-09-14T18:51:51.948Z,4.50
2018-09-14T18:54:20.786Z,4.23
2018-09-14T18:56:49.428Z,4.43
2018-09-14T18:59:33.917Z,4.60
2018-09-14T19:02:02.497Z,5.07
2018-09-14T19:04:31.064Z,4.80
2018-09-14T19:06:59.743Z,5.20
2018-09-14T19:09:28.315Z,4.70
2018-09-14T19:11:56.928Z,5.33
2018-09-14T19:14:25.691Z,4.80
2018-09-14T19:16:54.253Z,5.50
2018-09-14T19:19:23.164Z,6.17
2018-09-14T19:21:51.677Z,5.70
2018-09-14T19:24:20.376Z,5.10
2018-09-14T19:26:48.927Z,7.40
2018-09-14T19:29:17.532Z,7.90
2018-09-14T19:31:46.186Z,6.53
2018-09-14T19:34:14.747Z,6.60
2018-09-14T19:36:43.374Z,5.90
2018-09-14T19:39:13.082Z,5.37
2018-09-14T19:41:41.708Z,5.70
2018-09-14T19:44:22.583Z,3.70
2018-09-14T19:46:51.139Z,3.37
2018-09-14T19:49:19.829Z,4.40
2018-09-14T19:51:48.379Z,3.50
2018-09-14T19:54:17.093Z,3.40
2018-09-14T19:56:45.756Z,4.00
2018-09-14T19:59:14.352Z,3.30
2018-09-14T20:01:43.535Z,3.47
2018-09-14T20:04:12.089Z,3.70
2018-09-14T20:06:40.820Z,3.30
2018-09-14T20:09:11.669Z,3.47
2018-09-14T20:11:40.289Z,3.40
2018-09-14T20:14:20.292Z,3.47
2018-09-14T20:16:48.872Z,3.27
2018-09-14T20:19:17.427Z,3.10
2018-09-14T20:21:46.005Z,3.43
2018-09-14T20:24:14.574Z,2.90
2018-09-14T20:26:43.181Z,3.30
2018-09-14T20:29:12.575Z,3.60
2018-09-14T20:31:41.256Z,2.93
2018-09-14T20:34:09.888Z,3.37
2018-09-14T20:36:38.446Z,4.10
2018-09-14T20:39:08.974Z,3.63
2018-09-14T20:41:37.679Z,4.27
2018-09-14T20:44:08.333Z,3.53
2018-09-14T20:46:37.106Z,4.20
2018-09-14T20:49:05.809Z,4.00
2018-09-14T20:51:34.409Z,4.30
2018-09-14T20:54:02.977Z,3.07
2018-09-14T20:56:31.551Z,3.60
2018-09-14T20:59:00.989Z,4.80
2018-09-14T21:01:29.716Z,3.80
2018-09-14T21:03:58.281Z,4.63
2018-09-14T21:06:26.864Z,4.20
2018-09-14T21:08:55.464Z,4.00
2018-09-14T21:11:24.022Z,3.63
2018-09-14T21:13:52.581Z,3.97
2018-09-14T21:16:27.957Z,4.17
2018-09-14T21:18:56.541Z,4.10
2018-09-14T21:21:25.096Z,4.10
2018-09-14T21:23:53.714Z,4.33
2018-09-14T21:26:22.238Z,4.00
2018-09-14T21:28:50.791Z,4.53
2018-09-14T21:31:19.353Z,3.87
2018-09-14T21:33:47.904Z,3.90
2018-09-14T21:36:16.462Z,3.70
2018-09-14T21:38:45.008Z,3.60
2018-09-14T21:41:13.546Z,2.80
2018-09-14T21:43:42.121Z,4.10
2018-09-14T21:46:10.668Z,3.70
2018-09-14T21:48:39.321Z,3.10
2018-09-14T21:51:07.890Z,4.13
2018-09-14T21:53:36.552Z,3.97
2018-09-14T21:56:05.067Z,3.30
2018-09-14T21:58:33.616Z,4.27
2018-09-14T22:01:06.346Z,4.20
2018-09-14T22:03:34.922Z,4.80
2018-09-14T22:06:03.479Z,4.50
2018-09-14T22:08:32.028Z,3.67
2018-09-14T22:11:00.620Z,4.90
2018-09-14T22:13:29.217Z,4.50
2018-09-14T22:15:57.775Z,4.70
2018-09-14T22:18:26.417Z,3.93
2018-09-14T22:20:55.008Z,3.47
2018-09-14T22:23:23.657Z,4.20
2018-09-14T22:25:52.409Z,3.33
2018-09-14T22:31:11.392Z,3.93
2018-09-14T22:33:40.058Z,3.87
2018-09-14T22:36:08.656Z,3.40
2018-09-14T22:38:37.500Z,3.90
2018-09-14T22:41:06.065Z,4.27
2018-09-14T22:43:34.631Z,4.10
2018-09-14T22:46:03.165Z,3.70
2018-09-14T22:48:31.772Z,3.60
2018-09-14T22:51:00.401Z,3.57
2018-09-14T22:53:29.064Z,3.60
2018-09-14T22:55:57.648Z,3.53
2018-09-14T22:58:26.227Z,3.57
2018-09-14T23:01:00.021Z,4.47
2018-09-14T23:03:28.529Z,3.73
2018-09-14T23:05:57.064Z,3.67
2018-09-14T23:08:25.582Z,3.37
2018-09-14T23:10:54.331Z,4.17
2018-09-14T23:13:22.964Z,4.07
2018-09-14T23:15:59.326Z,4.43
2018-09-14T23:18:28.379Z,5.53
2018-09-14T23:20:56.935Z,5.60
2018-09-14T23:23:25.570Z,5.20
2018-09-14T23:25:56.178Z,5.23
2018-09-14T23:28:24.729Z,5.10
2018-09-14T23:30:53.268Z,4.30
2018-09-14T23:33:22.058Z,4.00
2018-09-14T23:35:50.604Z,3.60
2018-09-14T23:38:19.207Z,5.10
2018-09-14T23:40:47.833Z,6.43
2018-09-14T23:43:16.400Z,7.40
2018-09-14T23:45:44.948Z,6.80
2018-09-14T23:48:13.565Z,7.27
2018-09-14T23:50:42.112Z,7.40
2018-09-14T23:53:10.805Z,6.40
2018-09-14T23:55:39.360Z,6.20
2018-09-14T23:58:07.964Z,5.70
